CST,Max TemperatureF,Mean TemperatureF,Min TemperatureF,Max Dew PointF,MeanDew PointF,Min DewpointF,Max Humidity, Mean Humidity, Min Humidity, Max Sea Level PressureIn, Mean Sea Level PressureIn, Min Sea Level PressureIn, Max VisibilityMiles, Mean VisibilityMiles, Min VisibilityMiles, Max Wind SpeedMPH, Mean Wind SpeedMPH, Max Gust SpeedMPH,PrecipitationIn, CloudCover, Events, WindDirDegrees
2013-1-1,34,29,24,34,26,15,100,87,74,30.27,30.16,30.07,10,6,1,18,9,22,0.00,7,,3
2013-1-2,30,24,18,20,15,11,88,67,46,30.32,30.28,30.24,10,10,8,8,1,10,0.00,0,,353
2013-1-3,41,30,18,30,22,14,92,74,55,30.44,30.36,30.26,10,8,5,7,1,10,0.00,0,,248
2013-1-4,42,31,20,31,25,16,100,79,57,30.49,30.42,30.38,10,7,2,12,3,14,0.00,1,,196
2013-1-5,41,33,24,34,30,22,92,84,76,30.39,30.30,30.22,10,9,7,13,5,17,T,6,,189
2013-1-6,41,33,25,34,28,22,96,76,55,30.42,30.27,30.15,10,9,7,18,7,22,0.00,2,,288
2013-1-7,42,32,21,30,24,18,92,75,57,30.48,30.36,30.23,10,7,3,13,3,15,0.00,0,,139
2013-1-8,52,38,23,38,30,21,92,74,56,30.28,30.22,30.19,10,7,1,13,3,15,T,1,Rain,164
2013-1-9,57,50,42,46,42,38,93,79,57,30.44,30.36,30.24,10,8,4,10,3,,0.00,4,,55
2013-1-10,64,55,46,61,52,37,97,88,68,30.40,30.07,29.85,10,8,2,25,12,37,0.20,8,Rain,123
2013-1-11,61,55,48,56,51,46,93,81,69,29.97,29.91,29.85,10,10,10,20,12,26,T,2,Rain,199
2013-1-12,63,51,39,61,53,36,100,93,86,29.96,29.84,29.66,10,4,0,31,6,44,1.98,8,Fog-Rain-Thunderstorm,358
2013-1-13,39,31,23,34,28,17,92,83,74,30.36,30.06,29.85,10,7,2,25,14,33,0.53,6,Rain,352
2013-1-14,29,25,21,19,17,15,84,74,63,30.49,30.41,30.37,10,10,10,17,10,22,0.00,1,,11
2013-1-15,31,27,22,22,20,17,84,74,63,30.38,30.26,30.13,10,10,5,21,10,26,T,5,Snow,11
2013-1-16,36,32,27,26,22,20,92,74,56,30.19,30.14,30.10,10,10,8,14,5,16,0.00,3,,321
2013-1-17,43,34,25,34,26,22,92,75,57,30.52,30.31,30.15,10,10,6,25,7,33,0.00,2,,354
2013-1-18,44,33,22,32,27,21,96,77,57,30.57,30.45,30.28,10,10,10,16,7,21,0.00,0,,205
2013-1-19,54,45,36,41,34,28,76,68,59,30.27,30.17,30.05,10,10,10,21,11,29,0.00,0,,210
2013-1-20,44,37,29,34,23,17,96,65,33,30.33,30.25,30.15,10,10,10,17,7,20,0.00,0,,356
2013-1-21,37,30,22,19,11,2,69,52,35,30.40,30.34,30.27,10,10,10,23,11,28,0.00,1,,341
2013-1-22,25,21,17,15,3,-2,77,56,35,30.49,30.43,30.39,10,10,10,14,5,17,0.00,4,,37
2013-1-23,43,30,17,29,19,10,92,69,46,30.39,30.28,30.17,10,10,9,16,4,21,0.00,0,,202
2013-1-24,35,29,22,22,11,5,68,50,32,30.58,30.43,30.29,10,10,10,23,13,30,0.00,3,,57
2013-1-25,42,34,26,28,22,12,92,68,43,30.26,30.18,30.15,10,9,3,14,4,17,T,5,,26
2013-1-26,46,35,23,28,23,19,100,67,34,30.39,30.33,30.25,10,7,2,10,4,14,0.00,0,,60
2013-1-27,54,41,27,48,36,19,92,81,69,30.32,30.20,30.06,10,6,2,18,8,23,T,6,Rain,135
2013-1-28,64,59,54,59,55,49,93,86,78,30.07,30.03,29.99,10,7,2,23,16,31,0.00,7,,190
2013-1-29,71,62,52,61,57,52,90,78,66,29.97,29.72,29.41,10,8,1,33,19,48,0.82,8,Rain-Thunderstorm,186
2013-1-30,56,44,32,52,41,20,93,76,58,29.97,29.57,29.44,10,10,7,32,17,41,0.05,8,Rain,242
2013-1-31,41,30,19,32,23,6,89,70,50,30.39,30.11,29.98,10,9,2,28,14,36,T,6,Snow,283